메인 페이지
METAR-TAF:

METAR-TAF

공항 :

파리 샤를 드 골 공항

파리찰스 드골, 프랑스

위도: 49-01N, 경도: 002-32E, 고도: 118m

현재 날씨관측

예보는 16분 전, 14:30시(UTC)에 발표되었습니다.
동북동8kt북북동풍과 풍을 오가는
온도 25°C
습도 47%
기압 1016 hPa
시정 10km 이상
고도 4700ft 상공 구름 보통, 적란운.
고도 12000ft 상공 구름 보통
뇌우, 소나기

METAR: LFPG 251430Z 07008KT 030V090 9999 TS SHRA SCT047CB SCT120 25/13 Q1016 TEMPO VRB15G30KT 2500 TSRA BKN030CB

시각: 16:46 (14:46 UTC)

예보

예보는 3 시간 46분 전, 11:00시(UTC)에 발표되었습니다.
예보 대상 시간: 25일 12시부터 26일 18시까지 (UTC)
북동5kt
시정 10km 이상
고도 3000ft 상공 구름 조금, 타워링 적운.
확률 40% :
일시적
25일 13시부터 26일 01시까지 (UTC)
여러 방향의 바람 15kt, 순간 최대 풍속 30kt
시정: 2500m
고도 3000ft 상공 구름 많음, 적란운.
뇌우, 비
확률 30% :
일시적
25일 15시부터 25일 21시까지 (UTC)
뇌우, 비, 우박
전환 중
26일 01시부터 26일 03시까지 (UTC)
전환 중
26일 09시부터 26일 11시까지 (UTC)
고도 3000ft 상공 구름 조금, 타워링 적운.
확률 40% :
일시적
26일 14시부터 26일 18시까지 (UTC)
여러 방향의 바람 15kt, 순간 최대 풍속 25kt
시정: 2500m
고도 3000ft 상공 구름 많음, 적란운.
뇌우, 비

TAF: LFPG 251100Z 2512/2618 04005KT 9999 FEW030TCU PROB40 TEMPO 2513/2601 VRB15G30KT 2500 TSRA BKN030CB PROB30 TEMPO 2515/2521 TSRAGR BECMG 2601/2603 NSC BECMG 2609/2611 FEW030TCU PROB40 TEMPO 2614/2618 VRB15G25KT 2500 TSRA BKN030CB TX30/2615Z TN16/2604Z

4,000개 이상의 공항 관측 자료 및 예보 (METAR 및 TAF 보고).

지도상에서 검색 가능한 기상관측소가 노란 점과 빨간 점으로 표시되어 있습니다.

기상관측소 명을 보려면 표시 위로 마우스를 이동하세요.

날씨 관측과 예보를 보려면 클릭하세요.

지도 변경 : 확대하려면 엑스 표시가 있는 녹색 버튼, 축소하려면 빼기 표시가 있는 녹색 버튼, 다음 페이지의 지도를 보려면 녹색 화살표를 클릭하세요.


METAR-TAF: